sensor_id;sensor_type;location;lat;lon;timestamp;P1;durP1;ratioP1;P2;durP2;ratioP2
71183;SDS011;58887;51.980;4.464;2023-12-14T00:00:40;8.11;;;8.09;;
71183;SDS011;58887;51.980;4.464;2023-12-14T00:03:07;7.98;;;7.98;;
71183;SDS011;58887;51.980;4.464;2023-12-14T00:05:33;7.41;;;7.41;;
71183;SDS011;58887;51.980;4.464;2023-12-14T00:07:58;8.22;;;8.22;;
71183;SDS011;58887;51.980;4.464;2023-12-14T00:10:23;8.13;;;8.13;;
71183;SDS011;58887;51.980;4.464;2023-12-14T00:12:49;8.55;;;8.55;;
71183;SDS011;58887;51.980;4.464;2023-12-14T00:15:16;8.37;;;8.37;;
71183;SDS011;58887;51.980;4.464;2023-12-14T00:17:41;8.29;;;8.29;;
71183;SDS011;58887;51.980;4.464;2023-12-14T00:20:08;8.07;;;8.07;;
71183;SDS011;58887;51.980;4.464;2023-12-14T00:22:34;7.99;;;7.99;;
71183;SDS011;58887;51.980;4.464;2023-12-14T00:24:59;8.09;;;8.09;;
71183;SDS011;58887;51.980;4.464;2023-12-14T00:27:25;8.57;;;8.53;;
71183;SDS011;58887;51.980;4.464;2023-12-14T00:29:50;8.12;;;8.12;;
71183;SDS011;58887;51.980;4.464;2023-12-14T00:32:16;8.01;;;8.01;;
71183;SDS011;58887;51.980;4.464;2023-12-14T00:34:41;7.99;;;7.97;;
71183;SDS011;58887;51.980;4.464;2023-12-14T00:37:06;7.89;;;7.89;;
71183;SDS011;58887;51.980;4.464;2023-12-14T00:39:32;8.02;;;7.98;;
71183;SDS011;58887;51.980;4.464;2023-12-14T00:41:57;7.62;;;7.62;;
71183;SDS011;58887;51.980;4.464;2023-12-14T00:44:23;7.33;;;7.32;;
71183;SDS011;58887;51.980;4.464;2023-12-14T00:46:48;7.34;;;7.34;;
71183;SDS011;58887;51.980;4.464;2023-12-14T00:49:13;7.23;;;7.23;;
71183;SDS011;58887;51.980;4.464;2023-12-14T00:51:39;7.51;;;7.51;;
71183;SDS011;58887;51.980;4.464;2023-12-14T00:54:05;7.57;;;7.57;;
71183;SDS011;58887;51.980;4.464;2023-12-14T00:56:30;7.31;;;7.31;;
71183;SDS011;58887;51.980;4.464;2023-12-14T00:58:56;7.76;;;7.74;;
71183;SDS011;58887;51.980;4.464;2023-12-14T01:01:21;7.55;;;7.53;;
71183;SDS011;58887;51.980;4.464;2023-12-14T01:03:47;7.15;;;7.15;;
71183;SDS011;58887;51.980;4.464;2023-12-14T01:06:12;7.03;;;7.02;;
71183;SDS011;58887;51.980;4.464;2023-12-14T01:08:38;7.01;;;7.01;;
71183;SDS011;58887;51.980;4.464;2023-12-14T01:11:03;6.97;;;6.97;;
71183;SDS011;58887;51.980;4.464;2023-12-14T01:13:28;6.92;;;6.92;;
71183;SDS011;58887;51.980;4.464;2023-12-14T01:15:54;6.99;;;6.99;;
71183;SDS011;58887;51.980;4.464;2023-12-14T01:18:19;7.06;;;7.06;;
71183;SDS011;58887;51.980;4.464;2023-12-14T01:20:45;7.20;;;7.20;;
71183;SDS011;58887;51.980;4.464;2023-12-14T01:23:10;7.56;;;7.56;;
71183;SDS011;58887;51.980;4.464;2023-12-14T01:25:36;8.01;;;8.01;;
71183;SDS011;58887;51.980;4.464;2023-12-14T01:28:02;7.72;;;7.72;;
71183;SDS011;58887;51.980;4.464;2023-12-14T01:30:27;7.80;;;7.80;;
71183;SDS011;58887;51.980;4.464;2023-12-14T01:32:53;7.53;;;7.53;;
71183;SDS011;58887;51.980;4.464;2023-12-14T01:35:18;7.85;;;7.85;;
71183;SDS011;58887;51.980;4.464;2023-12-14T01:37:43;8.08;;;8.08;;
71183;SDS011;58887;51.980;4.464;2023-12-14T01:40:09;8.11;;;8.10;;
71183;SDS011;58887;51.980;4.464;2023-12-14T01:42:35;8.41;;;8.41;;
71183;SDS011;58887;51.980;4.464;2023-12-14T01:45:00;8.37;;;8.37;;
71183;SDS011;58887;51.980;4.464;2023-12-14T01:47:26;8.90;;;8.87;;
71183;SDS011;58887;51.980;4.464;2023-12-14T01:49:51;8.27;;;8.23;;
71183;SDS011;58887;51.980;4.464;2023-12-14T01:52:17;8.90;;;8.83;;
71183;SDS011;58887;51.980;4.464;2023-12-14T01:54:42;8.55;;;8.53;;
71183;SDS011;58887;51.980;4.464;2023-12-14T01:57:08;8.54;;;8.54;;
71183;SDS011;58887;51.980;4.464;2023-12-14T01:59:33;8.44;;;8.44;;
71183;SDS011;58887;51.980;4.464;2023-12-14T02:01:58;8.76;;;8.75;;
71183;SDS011;58887;51.980;4.464;2023-12-14T02:04:24;8.50;;;8.47;;
71183;SDS011;58887;51.980;4.464;2023-12-14T02:06:51;8.31;;;8.30;;
71183;SDS011;58887;51.980;4.464;2023-12-14T02:09:16;8.35;;;8.34;;
71183;SDS011;58887;51.980;4.464;2023-12-14T02:11:42;8.12;;;8.11;;
71183;SDS011;58887;51.980;4.464;2023-12-14T02:14:10;8.62;;;8.60;;
71183;SDS011;58887;51.980;4.464;2023-12-14T02:16:36;8.38;;;8.35;;
71183;SDS011;58887;51.980;4.464;2023-12-14T02:19:03;8.39;;;8.34;;
71183;SDS011;58887;51.980;4.464;2023-12-14T02:21:29;7.94;;;7.91;;
71183;SDS011;58887;51.980;4.464;2023-12-14T02:23:55;8.17;;;8.10;;
71183;SDS011;58887;51.980;4.464;2023-12-14T02:26:21;8.28;;;8.23;;
71183;SDS011;58887;51.980;4.464;2023-12-14T02:28:46;8.21;;;8.19;;
71183;SDS011;58887;51.980;4.464;2023-12-14T02:31:12;8.43;;;8.42;;
71183;SDS011;58887;51.980;4.464;2023-12-14T02:33:37;8.60;;;8.55;;
71183;SDS011;58887;51.980;4.464;2023-12-14T02:36:03;8.26;;;8.24;;
71183;SDS011;58887;51.980;4.464;2023-12-14T02:38:29;8.38;;;8.33;;
71183;SDS011;58887;51.980;4.464;2023-12-14T02:40:55;8.39;;;8.32;;
71183;SDS011;58887;51.980;4.464;2023-12-14T02:43:20;7.90;;;7.88;;
71183;SDS011;58887;51.980;4.464;2023-12-14T02:45:45;8.38;;;8.32;;
71183;SDS011;58887;51.980;4.464;2023-12-14T02:48:11;8.35;;;8.25;;
71183;SDS011;58887;51.980;4.464;2023-12-14T02:50:37;8.12;;;8.10;;
71183;SDS011;58887;51.980;4.464;2023-12-14T02:53:03;8.45;;;8.44;;
71183;SDS011;58887;51.980;4.464;2023-12-14T02:55:28;7.97;;;7.92;;
71183;SDS011;58887;51.980;4.464;2023-12-14T02:57:54;7.70;;;7.68;;
71183;SDS011;58887;51.980;4.464;2023-12-14T03:00:20;7.84;;;7.76;;
71183;SDS011;58887;51.980;4.464;2023-12-14T03:02:46;7.88;;;7.83;;
71183;SDS011;58887;51.980;4.464;2023-12-14T03:05:11;7.59;;;7.56;;
71183;SDS011;58887;51.980;4.464;2023-12-14T03:07:38;7.21;;;7.14;;
71183;SDS011;58887;51.980;4.464;2023-12-14T03:10:04;7.46;;;7.40;;
71183;SDS011;58887;51.980;4.464;2023-12-14T03:12:30;7.26;;;7.23;;
71183;SDS011;58887;51.980;4.464;2023-12-14T03:14:55;7.14;;;7.13;;
71183;SDS011;58887;51.980;4.464;2023-12-14T03:17:20;7.67;;;7.64;;
71183;SDS011;58887;51.980;4.464;2023-12-14T03:19:46;7.59;;;7.58;;
71183;SDS011;58887;51.980;4.464;2023-12-14T03:22:11;7.66;;;7.65;;
71183;SDS011;58887;51.980;4.464;2023-12-14T03:24:37;7.58;;;7.57;;
71183;SDS011;58887;51.980;4.464;2023-12-14T03:27:02;7.90;;;7.86;;
71183;SDS011;58887;51.980;4.464;2023-12-14T03:29:28;7.98;;;7.91;;
71183;SDS011;58887;51.980;4.464;2023-12-14T03:31:55;7.91;;;7.85;;
71183;SDS011;58887;51.980;4.464;2023-12-14T03:34:21;7.83;;;7.79;;
71183;SDS011;58887;51.980;4.464;2023-12-14T03:36:46;7.63;;;7.59;;
71183;SDS011;58887;51.980;4.464;2023-12-14T03:39:12;7.76;;;7.73;;
71183;SDS011;58887;51.980;4.464;2023-12-14T03:41:37;7.83;;;7.83;;
71183;SDS011;58887;51.980;4.464;2023-12-14T03:44:03;7.35;;;7.32;;
71183;SDS011;58887;51.980;4.464;2023-12-14T03:46:29;7.93;;;7.79;;
71183;SDS011;58887;51.980;4.464;2023-12-14T03:48:55;7.12;;;7.04;;
71183;SDS011;58887;51.980;4.464;2023-12-14T03:51:20;6.97;;;6.95;;
71183;SDS011;58887;51.980;4.464;2023-12-14T03:53:46;6.97;;;6.97;;
71183;SDS011;58887;51.980;4.464;2023-12-14T03:56:12;7.25;;;7.24;;
71183;SDS011;58887;51.980;4.464;2023-12-14T03:58:37;7.10;;;7.09;;
71183;SDS011;58887;51.980;4.464;2023-12-14T04:01:03;6.94;;;6.93;;
71183;SDS011;58887;51.980;4.464;2023-12-14T04:03:29;6.52;;;6.51;;
71183;SDS011;58887;51.980;4.464;2023-12-14T04:05:54;6.77;;;6.75;;
71183;SDS011;58887;51.980;4.464;2023-12-14T04:08:20;6.33;;;6.31;;
71183;SDS011;58887;51.980;4.464;2023-12-14T04:10:45;6.46;;;6.42;;
71183;SDS011;58887;51.980;4.464;2023-12-14T04:13:10;6.45;;;6.43;;
71183;SDS011;58887;51.980;4.464;2023-12-14T04:15:36;6.11;;;6.07;;
71183;SDS011;58887;51.980;4.464;2023-12-14T04:18:01;6.46;;;6.43;;
71183;SDS011;58887;51.980;4.464;2023-12-14T04:20:27;6.18;;;6.12;;
71183;SDS011;58887;51.980;4.464;2023-12-14T04:22:52;6.22;;;6.17;;
71183;SDS011;58887;51.980;4.464;2023-12-14T04:25:18;5.62;;;5.60;;
71183;SDS011;58887;51.980;4.464;2023-12-14T04:27:43;5.85;;;5.84;;
71183;SDS011;58887;51.980;4.464;2023-12-14T04:30:09;5.93;;;5.92;;
71183;SDS011;58887;51.980;4.464;2023-12-14T04:32:36;5.64;;;5.64;;
71183;SDS011;58887;51.980;4.464;2023-12-14T04:35:02;5.11;;;5.09;;
71183;SDS011;58887;51.980;4.464;2023-12-14T04:37:27;4.96;;;4.93;;
71183;SDS011;58887;51.980;4.464;2023-12-14T04:39:53;4.99;;;4.97;;
71183;SDS011;58887;51.980;4.464;2023-12-14T04:42:18;4.86;;;4.84;;
71183;SDS011;58887;51.980;4.464;2023-12-14T04:44:44;4.80;;;4.78;;
71183;SDS011;58887;51.980;4.464;2023-12-14T04:47:09;4.88;;;4.88;;
71183;SDS011;58887;51.980;4.464;2023-12-14T04:49:34;4.83;;;4.81;;
71183;SDS011;58887;51.980;4.464;2023-12-14T04:52:00;4.77;;;4.74;;
71183;SDS011;58887;51.980;4.464;2023-12-14T04:54:25;4.42;;;4.38;;
71183;SDS011;58887;51.980;4.464;2023-12-14T04:56:51;4.71;;;4.68;;
71183;SDS011;58887;51.980;4.464;2023-12-14T04:59:16;4.65;;;4.62;;
71183;SDS011;58887;51.980;4.464;2023-12-14T05:01:43;4.25;;;4.21;;
71183;SDS011;58887;51.980;4.464;2023-12-14T05:04:08;4.24;;;4.20;;
71183;SDS011;58887;51.980;4.464;2023-12-14T05:06:34;4.06;;;4.03;;
71183;SDS011;58887;51.980;4.464;2023-12-14T05:09:00;3.99;;;3.94;;
71183;SDS011;58887;51.980;4.464;2023-12-14T05:11:29;3.97;;;3.96;;
71183;SDS011;58887;51.980;4.464;2023-12-14T05:13:54;3.94;;;3.90;;
71183;SDS011;58887;51.980;4.464;2023-12-14T05:16:20;3.78;;;3.75;;
71183;SDS011;58887;51.980;4.464;2023-12-14T05:18:45;3.77;;;3.74;;
71183;SDS011;58887;51.980;4.464;2023-12-14T05:21:16;3.57;;;3.54;;
71183;SDS011;58887;51.980;4.464;2023-12-14T05:23:42;3.78;;;3.76;;
71183;SDS011;58887;51.980;4.464;2023-12-14T05:26:08;3.87;;;3.86;;
71183;SDS011;58887;51.980;4.464;2023-12-14T05:28:33;3.73;;;3.73;;
71183;SDS011;58887;51.980;4.464;2023-12-14T05:31:00;3.80;;;3.79;;
71183;SDS011;58887;51.980;4.464;2023-12-14T05:33:26;3.89;;;3.87;;
71183;SDS011;58887;51.980;4.464;2023-12-14T05:35:51;3.91;;;3.87;;
71183;SDS011;58887;51.980;4.464;2023-12-14T05:38:17;3.89;;;3.87;;
71183;SDS011;58887;51.980;4.464;2023-12-14T05:40:42;3.93;;;3.93;;
71183;SDS011;58887;51.980;4.464;2023-12-14T05:43:09;3.52;;;3.50;;
71183;SDS011;58887;51.980;4.464;2023-12-14T05:45:35;3.73;;;3.72;;
71183;SDS011;58887;51.980;4.464;2023-12-14T05:48:01;3.61;;;3.61;;
71183;SDS011;58887;51.980;4.464;2023-12-14T05:50:27;4.09;;;4.09;;
71183;SDS011;58887;51.980;4.464;2023-12-14T05:52:52;3.79;;;3.78;;
71183;SDS011;58887;51.980;4.464;2023-12-14T05:55:18;4.30;;;4.30;;
71183;SDS011;58887;51.980;4.464;2023-12-14T05:57:47;4.47;;;4.47;;
71183;SDS011;58887;51.980;4.464;2023-12-14T06:00:17;4.66;;;4.66;;
71183;SDS011;58887;51.980;4.464;2023-12-14T06:02:43;4.72;;;4.72;;
71183;SDS011;58887;51.980;4.464;2023-12-14T06:05:08;4.56;;;4.56;;
71183;SDS011;58887;51.980;4.464;2023-12-14T06:07:34;4.35;;;4.35;;
71183;SDS011;58887;51.980;4.464;2023-12-14T06:09:59;4.56;;;4.56;;
71183;SDS011;58887;51.980;4.464;2023-12-14T06:12:26;4.51;;;4.51;;
71183;SDS011;58887;51.980;4.464;2023-12-14T06:14:52;4.58;;;4.58;;
71183;SDS011;58887;51.980;4.464;2023-12-14T06:17:17;4.62;;;4.59;;
71183;SDS011;58887;51.980;4.464;2023-12-14T06:19:43;4.25;;;4.23;;
71183;SDS011;58887;51.980;4.464;2023-12-14T06:22:08;4.28;;;4.28;;
71183;SDS011;58887;51.980;4.464;2023-12-14T06:24:34;4.57;;;4.57;;
71183;SDS011;58887;51.980;4.464;2023-12-14T06:26:59;4.66;;;4.66;;
71183;SDS011;58887;51.980;4.464;2023-12-14T06:29:25;4.64;;;4.64;;
71183;SDS011;58887;51.980;4.464;2023-12-14T06:31:50;4.39;;;4.39;;
71183;SDS011;58887;51.980;4.464;2023-12-14T06:34:17;4.19;;;4.19;;
71183;SDS011;58887;51.980;4.464;2023-12-14T06:36:44;4.38;;;4.36;;
71183;SDS011;58887;51.980;4.464;2023-12-14T06:39:10;4.38;;;4.35;;
71183;SDS011;58887;51.980;4.464;2023-12-14T06:41:36;4.38;;;4.38;;
71183;SDS011;58887;51.980;4.464;2023-12-14T06:44:02;4.22;;;4.22;;
71183;SDS011;58887;51.980;4.464;2023-12-14T06:46:28;4.45;;;4.45;;
71183;SDS011;58887;51.980;4.464;2023-12-14T06:48:53;4.15;;;4.15;;
71183;SDS011;58887;51.980;4.464;2023-12-14T06:51:20;4.39;;;4.39;;
71183;SDS011;58887;51.980;4.464;2023-12-14T06:53:46;4.28;;;4.28;;
71183;SDS011;58887;51.980;4.464;2023-12-14T06:56:13;4.34;;;4.34;;
71183;SDS011;58887;51.980;4.464;2023-12-14T06:58:39;4.23;;;4.19;;
71183;SDS011;58887;51.980;4.464;2023-12-14T07:01:07;3.94;;;3.94;;
71183;SDS011;58887;51.980;4.464;2023-12-14T07:03:33;4.43;;;4.43;;
71183;SDS011;58887;51.980;4.464;2023-12-14T07:05:58;4.37;;;4.37;;
71183;SDS011;58887;51.980;4.464;2023-12-14T07:08:24;4.39;;;4.39;;
71183;SDS011;58887;51.980;4.464;2023-12-14T07:10:49;4.75;;;4.75;;
71183;SDS011;58887;51.980;4.464;2023-12-14T07:13:15;4.55;;;4.55;;
71183;SDS011;58887;51.980;4.464;2023-12-14T07:15:40;4.77;;;4.77;;
71183;SDS011;58887;51.980;4.464;2023-12-14T07:18:06;4.61;;;4.61;;
71183;SDS011;58887;51.980;4.464;2023-12-14T07:20:31;4.46;;;4.46;;
71183;SDS011;58887;51.980;4.464;2023-12-14T07:22:57;4.82;;;4.82;;
71183;SDS011;58887;51.980;4.464;2023-12-14T07:25:22;4.61;;;4.61;;
71183;SDS011;58887;51.980;4.464;2023-12-14T07:27:48;4.94;;;4.94;;
71183;SDS011;58887;51.980;4.464;2023-12-14T07:30:13;4.96;;;4.96;;
71183;SDS011;58887;51.980;4.464;2023-12-14T07:32:39;4.63;;;4.63;;
71183;SDS011;58887;51.980;4.464;2023-12-14T07:35:04;4.88;;;4.88;;
71183;SDS011;58887;51.980;4.464;2023-12-14T07:37:30;4.82;;;4.82;;
71183;SDS011;58887;51.980;4.464;2023-12-14T07:39:56;4.65;;;4.65;;
71183;SDS011;58887;51.980;4.464;2023-12-14T07:42:23;4.68;;;4.68;;
71183;SDS011;58887;51.980;4.464;2023-12-14T07:44:48;5.75;;;5.75;;
71183;SDS011;58887;51.980;4.464;2023-12-14T07:47:14;5.71;;;5.71;;
71183;SDS011;58887;51.980;4.464;2023-12-14T07:49:39;5.82;;;5.82;;
71183;SDS011;58887;51.980;4.464;2023-12-14T07:52:05;5.37;;;5.37;;
71183;SDS011;58887;51.980;4.464;2023-12-14T07:54:31;4.84;;;4.84;;
71183;SDS011;58887;51.980;4.464;2023-12-14T07:56:57;4.93;;;4.93;;
71183;SDS011;58887;51.980;4.464;2023-12-14T07:59:22;5.26;;;5.26;;
71183;SDS011;58887;51.980;4.464;2023-12-14T08:01:48;5.47;;;5.47;;
71183;SDS011;58887;51.980;4.464;2023-12-14T08:04:14;5.55;;;5.53;;
71183;SDS011;58887;51.980;4.464;2023-12-14T08:06:40;5.63;;;5.60;;
71183;SDS011;58887;51.980;4.464;2023-12-14T08:09:05;5.59;;;5.57;;
71183;SDS011;58887;51.980;4.464;2023-12-14T08:11:31;5.34;;;5.30;;
71183;SDS011;58887;51.980;4.464;2023-12-14T08:13:57;5.57;;;5.51;;
71183;SDS011;58887;51.980;4.464;2023-12-14T08:16:23;6.03;;;6.00;;
71183;SDS011;58887;51.980;4.464;2023-12-14T08:18:49;5.93;;;5.91;;
71183;SDS011;58887;51.980;4.464;2023-12-14T08:21:14;6.47;;;6.43;;
71183;SDS011;58887;51.980;4.464;2023-12-14T08:23:41;6.42;;;6.35;;
71183;SDS011;58887;51.980;4.464;2023-12-14T08:26:07;6.14;;;6.09;;
71183;SDS011;58887;51.980;4.464;2023-12-14T08:28:33;6.43;;;6.40;;
71183;SDS011;58887;51.980;4.464;2023-12-14T08:30:59;5.94;;;5.94;;
71183;SDS011;58887;51.980;4.464;2023-12-14T08:33:27;5.67;;;5.65;;
71183;SDS011;58887;51.980;4.464;2023-12-14T08:35:53;6.11;;;6.09;;
71183;SDS011;58887;51.980;4.464;2023-12-14T08:38:19;6.00;;;5.96;;
71183;SDS011;58887;51.980;4.464;2023-12-14T08:40:44;6.15;;;6.13;;
71183;SDS011;58887;51.980;4.464;2023-12-14T08:43:10;5.92;;;5.91;;
71183;SDS011;58887;51.980;4.464;2023-12-14T08:45:35;6.22;;;6.22;;
71183;SDS011;58887;51.980;4.464;2023-12-14T08:48:01;5.81;;;5.79;;
71183;SDS011;58887;51.980;4.464;2023-12-14T08:50:26;6.11;;;6.10;;
71183;SDS011;58887;51.980;4.464;2023-12-14T08:52:52;5.79;;;5.79;;
71183;SDS011;58887;51.980;4.464;2023-12-14T08:55:19;5.74;;;5.73;;
71183;SDS011;58887;51.980;4.464;2023-12-14T08:57:44;5.59;;;5.59;;
71183;SDS011;58887;51.980;4.464;2023-12-14T09:00:10;5.59;;;5.59;;
71183;SDS011;58887;51.980;4.464;2023-12-14T09:02:36;5.55;;;5.52;;
71183;SDS011;58887;51.980;4.464;2023-12-14T09:05:02;5.47;;;5.47;;
71183;SDS011;58887;51.980;4.464;2023-12-14T09:07:29;5.70;;;5.70;;
71183;SDS011;58887;51.980;4.464;2023-12-14T09:09:55;5.64;;;5.63;;
71183;SDS011;58887;51.980;4.464;2023-12-14T09:12:20;5.63;;;5.63;;
71183;SDS011;58887;51.980;4.464;2023-12-14T09:14:46;5.51;;;5.51;;
71183;SDS011;58887;51.980;4.464;2023-12-14T09:17:11;5.37;;;5.36;;
71183;SDS011;58887;51.980;4.464;2023-12-14T09:19:37;5.72;;;5.70;;
71183;SDS011;58887;51.980;4.464;2023-12-14T09:22:02;6.20;;;6.20;;
71183;SDS011;58887;51.980;4.464;2023-12-14T09:24:28;6.41;;;6.41;;
71183;SDS011;58887;51.980;4.464;2023-12-14T09:26:54;5.95;;;5.90;;
71183;SDS011;58887;51.980;4.464;2023-12-14T09:29:19;5.89;;;5.85;;
71183;SDS011;58887;51.980;4.464;2023-12-14T09:31:45;6.06;;;6.06;;
71183;SDS011;58887;51.980;4.464;2023-12-14T09:34:11;6.22;;;6.22;;
71183;SDS011;58887;51.980;4.464;2023-12-14T09:36:37;6.05;;;6.05;;
71183;SDS011;58887;51.980;4.464;2023-12-14T09:39:04;6.01;;;6.01;;
71183;SDS011;58887;51.980;4.464;2023-12-14T09:41:30;6.08;;;6.08;;
71183;SDS011;58887;51.980;4.464;2023-12-14T09:43:56;6.01;;;6.01;;
71183;SDS011;58887;51.980;4.464;2023-12-14T09:46:21;6.23;;;6.23;;
71183;SDS011;58887;51.980;4.464;2023-12-14T09:48:49;6.33;;;6.33;;
71183;SDS011;58887;51.980;4.464;2023-12-14T09:51:16;6.86;;;6.86;;
71183;SDS011;58887;51.980;4.464;2023-12-14T09:53:42;7.20;;;7.20;;
71183;SDS011;58887;51.980;4.464;2023-12-14T09:56:08;7.12;;;7.11;;
71183;SDS011;58887;51.980;4.464;2023-12-14T09:58:34;6.36;;;6.29;;
71183;SDS011;58887;51.980;4.464;2023-12-14T10:00:59;5.82;;;5.79;;
71183;SDS011;58887;51.980;4.464;2023-12-14T10:03:26;5.35;;;5.35;;
71183;SDS011;58887;51.980;4.464;2023-12-14T10:05:57;6.19;;;6.16;;
71183;SDS011;58887;51.980;4.464;2023-12-14T10:08:24;6.01;;;5.99;;
71183;SDS011;58887;51.980;4.464;2023-12-14T10:10:51;5.62;;;5.57;;
71183;SDS011;58887;51.980;4.464;2023-12-14T10:13:19;6.18;;;6.11;;
71183;SDS011;58887;51.980;4.464;2023-12-14T10:15:45;6.08;;;6.06;;
71183;SDS011;58887;51.980;4.464;2023-12-14T10:18:33;6.25;;;6.25;;
71183;SDS011;58887;51.980;4.464;2023-12-14T10:21:01;5.95;;;5.95;;
71183;SDS011;58887;51.980;4.464;2023-12-14T10:23:30;5.97;;;5.97;;
71183;SDS011;58887;51.980;4.464;2023-12-14T10:25:56;5.86;;;5.86;;
71183;SDS011;58887;51.980;4.464;2023-12-14T10:28:22;5.62;;;5.62;;
71183;SDS011;58887;51.980;4.464;2023-12-14T10:30:49;6.00;;;5.99;;
71183;SDS011;58887;51.980;4.464;2023-12-14T10:33:15;5.84;;;5.84;;
71183;SDS011;58887;51.980;4.464;2023-12-14T10:35:41;5.82;;;5.82;;
71183;SDS011;58887;51.980;4.464;2023-12-14T10:38:08;5.35;;;5.35;;
71183;SDS011;58887;51.980;4.464;2023-12-14T10:40:36;5.79;;;5.79;;
71183;SDS011;58887;51.980;4.464;2023-12-14T10:43:06;5.96;;;5.96;;
71183;SDS011;58887;51.980;4.464;2023-12-14T10:45:32;6.19;;;6.19;;
71183;SDS011;58887;51.980;4.464;2023-12-14T10:47:59;5.74;;;5.74;;
71183;SDS011;58887;51.980;4.464;2023-12-14T10:50:27;5.85;;;5.85;;
71183;SDS011;58887;51.980;4.464;2023-12-14T10:52:54;8.15;;;8.12;;
71183;SDS011;58887;51.980;4.464;2023-12-14T10:55:27;10.32;;;10.25;;
71183;SDS011;58887;51.980;4.464;2023-12-14T10:57:58;6.78;;;6.77;;
71183;SDS011;58887;51.980;4.464;2023-12-14T11:00:23;6.15;;;6.15;;
71183;SDS011;58887;51.980;4.464;2023-12-14T11:02:49;6.76;;;6.73;;
71183;SDS011;58887;51.980;4.464;2023-12-14T11:05:17;6.42;;;6.41;;
71183;SDS011;58887;51.980;4.464;2023-12-14T11:07:52;5.90;;;5.87;;
71183;SDS011;58887;51.980;4.464;2023-12-14T11:10:41;6.37;;;6.37;;
71183;SDS011;58887;51.980;4.464;2023-12-14T11:13:07;6.25;;;6.22;;
71183;SDS011;58887;51.980;4.464;2023-12-14T11:15:36;6.46;;;6.46;;
71183;SDS011;58887;51.980;4.464;2023-12-14T11:23:32;5.94;;;5.94;;
71183;SDS011;58887;51.980;4.464;2023-12-14T11:26:06;5.99;;;5.99;;
71183;SDS011;58887;51.980;4.464;2023-12-14T11:28:35;6.22;;;6.22;;
71183;SDS011;58887;51.980;4.464;2023-12-14T11:31:03;6.58;;;6.58;;
71183;SDS011;58887;51.980;4.464;2023-12-14T11:33:33;6.61;;;6.61;;
71183;SDS011;58887;51.980;4.464;2023-12-14T11:35:59;6.56;;;6.53;;
71183;SDS011;58887;51.980;4.464;2023-12-14T11:38:26;7.36;;;7.28;;
71183;SDS011;58887;51.980;4.464;2023-12-14T11:40:52;8.12;;;8.08;;
71183;SDS011;58887;51.980;4.464;2023-12-14T11:43:18;8.50;;;8.46;;
71183;SDS011;58887;51.980;4.464;2023-12-14T11:45:46;8.05;;;8.04;;
71183;SDS011;58887;51.980;4.464;2023-12-14T11:48:12;8.15;;;8.15;;
71183;SDS011;58887;51.980;4.464;2023-12-14T11:50:39;8.35;;;8.35;;
71183;SDS011;58887;51.980;4.464;2023-12-14T11:53:06;8.26;;;8.25;;
71183;SDS011;58887;51.980;4.464;2023-12-14T11:55:37;8.60;;;8.53;;
71183;SDS011;58887;51.980;4.464;2023-12-14T11:58:05;8.36;;;8.25;;
71183;SDS011;58887;51.980;4.464;2023-12-14T12:00:31;7.95;;;7.93;;
71183;SDS011;58887;51.980;4.464;2023-12-14T12:03:10;8.06;;;8.05;;
71183;SDS011;58887;51.980;4.464;2023-12-14T12:05:38;6.97;;;6.93;;
71183;SDS011;58887;51.980;4.464;2023-12-14T12:08:12;6.14;;;6.09;;
71183;SDS011;58887;51.980;4.464;2023-12-14T12:10:39;5.82;;;5.73;;
71183;SDS011;58887;51.980;4.464;2023-12-14T12:13:07;6.46;;;6.42;;
71183;SDS011;58887;51.980;4.464;2023-12-14T12:15:37;7.26;;;7.23;;
71183;SDS011;58887;51.980;4.464;2023-12-14T12:18:03;7.55;;;7.52;;
71183;SDS011;58887;51.980;4.464;2023-12-14T12:20:30;8.35;;;8.31;;
71183;SDS011;58887;51.980;4.464;2023-12-14T12:22:56;7.37;;;7.37;;
71183;SDS011;58887;51.980;4.464;2023-12-14T12:25:21;5.83;;;5.83;;
71183;SDS011;58887;51.980;4.464;2023-12-14T12:27:48;5.56;;;5.55;;
71183;SDS011;58887;51.980;4.464;2023-12-14T12:30:13;5.55;;;5.54;;
71183;SDS011;58887;51.980;4.464;2023-12-14T12:32:40;5.78;;;5.77;;
71183;SDS011;58887;51.980;4.464;2023-12-14T12:35:06;6.09;;;6.05;;
71183;SDS011;58887;51.980;4.464;2023-12-14T12:37:33;6.87;;;6.85;;
71183;SDS011;58887;51.980;4.464;2023-12-14T12:39:59;7.26;;;7.26;;
71183;SDS011;58887;51.980;4.464;2023-12-14T12:42:25;7.33;;;7.30;;
71183;SDS011;58887;51.980;4.464;2023-12-14T12:44:50;7.58;;;7.58;;
71183;SDS011;58887;51.980;4.464;2023-12-14T12:47:16;7.42;;;7.41;;
71183;SDS011;58887;51.980;4.464;2023-12-14T12:49:42;7.85;;;7.83;;
71183;SDS011;58887;51.980;4.464;2023-12-14T12:52:08;8.05;;;8.04;;
71183;SDS011;58887;51.980;4.464;2023-12-14T12:54:34;8.21;;;8.20;;
71183;SDS011;58887;51.980;4.464;2023-12-14T12:57:00;7.50;;;7.48;;
71183;SDS011;58887;51.980;4.464;2023-12-14T12:59:26;7.71;;;7.71;;
71183;SDS011;58887;51.980;4.464;2023-12-14T13:01:52;7.72;;;7.72;;
71183;SDS011;58887;51.980;4.464;2023-12-14T13:04:18;7.58;;;7.58;;
71183;SDS011;58887;51.980;4.464;2023-12-14T13:06:46;7.35;;;7.34;;
71183;SDS011;58887;51.980;4.464;2023-12-14T13:09:15;8.22;;;8.22;;
71183;SDS011;58887;51.980;4.464;2023-12-14T13:11:42;7.71;;;7.69;;
71183;SDS011;58887;51.980;4.464;2023-12-14T13:14:08;7.18;;;7.18;;
71183;SDS011;58887;51.980;4.464;2023-12-14T13:16:35;7.12;;;7.12;;
71183;SDS011;58887;51.980;4.464;2023-12-14T13:19:01;7.31;;;7.30;;
71183;SDS011;58887;51.980;4.464;2023-12-14T13:21:28;6.57;;;6.57;;
71183;SDS011;58887;51.980;4.464;2023-12-14T13:23:53;6.95;;;6.94;;
71183;SDS011;58887;51.980;4.464;2023-12-14T13:26:19;6.83;;;6.82;;
71183;SDS011;58887;51.980;4.464;2023-12-14T13:28:44;6.80;;;6.79;;
71183;SDS011;58887;51.980;4.464;2023-12-14T13:31:10;6.45;;;6.45;;
71183;SDS011;58887;51.980;4.464;2023-12-14T13:33:35;6.14;;;6.13;;
71183;SDS011;58887;51.980;4.464;2023-12-14T13:36:00;6.71;;;6.71;;
71183;SDS011;58887;51.980;4.464;2023-12-14T13:38:26;6.34;;;6.34;;
71183;SDS011;58887;51.980;4.464;2023-12-14T13:40:51;5.77;;;5.77;;
71183;SDS011;58887;51.980;4.464;2023-12-14T13:43:17;5.73;;;5.73;;
71183;SDS011;58887;51.980;4.464;2023-12-14T13:45:42;5.84;;;5.82;;
71183;SDS011;58887;51.980;4.464;2023-12-14T13:48:08;5.44;;;5.44;;
71183;SDS011;58887;51.980;4.464;2023-12-14T13:50:33;5.49;;;5.48;;
71183;SDS011;58887;51.980;4.464;2023-12-14T13:53:00;4.88;;;4.87;;
71183;SDS011;58887;51.980;4.464;2023-12-14T13:55:27;4.63;;;4.63;;
71183;SDS011;58887;51.980;4.464;2023-12-14T13:57:53;4.82;;;4.81;;
71183;SDS011;58887;51.980;4.464;2023-12-14T14:00:19;4.93;;;4.90;;
71183;SDS011;58887;51.980;4.464;2023-12-14T14:02:44;5.10;;;5.08;;
71183;SDS011;58887;51.980;4.464;2023-12-14T14:05:10;5.04;;;5.03;;
71183;SDS011;58887;51.980;4.464;2023-12-14T14:07:35;5.43;;;5.43;;
71183;SDS011;58887;51.980;4.464;2023-12-14T14:10:01;5.20;;;5.20;;
71183;SDS011;58887;51.980;4.464;2023-12-14T14:12:28;5.49;;;5.48;;
71183;SDS011;58887;51.980;4.464;2023-12-14T14:14:53;5.01;;;5.01;;
71183;SDS011;58887;51.980;4.464;2023-12-14T14:17:19;4.47;;;4.46;;
71183;SDS011;58887;51.980;4.464;2023-12-14T14:19:45;4.85;;;4.84;;
71183;SDS011;58887;51.980;4.464;2023-12-14T14:22:10;4.81;;;4.80;;
71183;SDS011;58887;51.980;4.464;2023-12-14T14:24:36;4.68;;;4.67;;
71183;SDS011;58887;51.980;4.464;2023-12-14T14:27:01;5.04;;;5.03;;
71183;SDS011;58887;51.980;4.464;2023-12-14T14:29:27;4.79;;;4.79;;
71183;SDS011;58887;51.980;4.464;2023-12-14T14:31:52;5.10;;;5.10;;
71183;SDS011;58887;51.980;4.464;2023-12-14T14:34:17;4.52;;;4.52;;
71183;SDS011;58887;51.980;4.464;2023-12-14T14:36:43;4.34;;;4.34;;
71183;SDS011;58887;51.980;4.464;2023-12-14T14:39:10;4.58;;;4.58;;
71183;SDS011;58887;51.980;4.464;2023-12-14T14:41:35;4.33;;;4.33;;
71183;SDS011;58887;51.980;4.464;2023-12-14T14:44:01;5.50;;;5.48;;
71183;SDS011;58887;51.980;4.464;2023-12-14T14:46:26;5.40;;;5.35;;